createdAt,value
2019-06-07T00:00:35.067Z,100.00
2019-06-07T00:02:50.218Z,100.00
2019-06-07T00:05:20.693Z,100.00
2019-06-07T00:07:51.172Z,100.00
2019-06-07T00:10:35.977Z,100.00
2019-06-07T00:12:53.857Z,100.00
2019-06-07T00:15:28.707Z,100.00
2019-06-07T00:17:56.715Z,100.00
2019-06-07T00:20:27.536Z,100.00
2019-06-07T00:22:57.988Z,100.00
2019-06-07T00:25:28.488Z,100.00
2019-06-07T00:27:58.896Z,100.00
2019-06-07T00:30:44.556Z,100.00
2019-06-07T00:33:01.500Z,100.00
2019-06-07T00:35:31.979Z,100.00
2019-06-07T00:38:02.312Z,100.00
2019-06-07T00:40:32.648Z,100.00
2019-06-07T00:43:03.032Z,100.00
2019-06-07T00:45:33.451Z,100.00
2019-06-07T00:48:03.729Z,100.00
2019-06-07T00:50:34.176Z,100.00
2019-06-07T00:53:17.158Z,100.00
2019-06-07T00:55:37.131Z,100.00
2019-06-07T00:58:07.839Z,100.00
2019-06-07T01:02:29.067Z,100.00
2019-06-07T01:04:56.643Z,100.00
2019-06-07T01:07:27.296Z,100.00
2019-06-07T01:09:57.808Z,100.00
2019-06-07T01:12:28.413Z,100.00
2019-06-07T01:14:58.884Z,100.00
2019-06-07T01:17:43.670Z,100.00
2019-06-07T01:20:02.863Z,100.00
2019-06-07T01:22:33.324Z,100.00
2019-06-07T01:25:03.763Z,100.00
2019-06-07T01:27:34.173Z,100.00
2019-06-07T01:30:05.952Z,100.00
2019-06-07T01:32:36.420Z,100.00
2019-06-07T01:35:07.904Z,100.00
2019-06-07T01:37:38.330Z,100.00
2019-06-07T01:40:11.052Z,100.00
2019-06-07T01:42:41.463Z,100.00
2019-06-07T01:45:18.103Z,100.00
2019-06-07T01:47:48.403Z,100.00
2019-06-07T01:50:23.314Z,100.00
2019-06-07T01:52:52.892Z,100.00
2019-06-07T01:55:26.749Z,100.00
2019-06-07T01:57:55.459Z,100.00
2019-06-07T02:00:28.697Z,100.00
2019-06-07T02:02:58.104Z,100.00
2019-06-07T02:05:31.963Z,100.00
2019-06-07T02:08:00.647Z,100.00
2019-06-07T02:10:33.772Z,100.00
2019-06-07T02:13:03.074Z,100.00
2019-06-07T02:15:36.691Z,100.00
2019-06-07T02:18:05.799Z,100.00
2019-06-07T02:20:36.224Z,100.00
2019-06-07T02:23:06.660Z,100.00
2019-06-07T02:25:45.955Z,100.00
2019-06-07T02:28:27.681Z,100.00
2019-06-07T02:30:53.219Z,100.00
2019-06-07T02:33:13.277Z,100.00
2019-06-07T02:35:43.745Z,100.00
2019-06-07T02:38:14.170Z,100.00
2019-06-07T02:40:44.755Z,100.00
2019-06-07T02:43:15.161Z,99.67
2019-06-07T02:45:45.654Z,99.54
2019-06-07T02:48:16.046Z,99.03
2019-06-07T02:50:46.680Z,98.49
2019-06-07T02:53:17.244Z,97.81
2019-06-07T02:56:34.359Z,97.81
2019-06-07T02:58:19.814Z,97.48
2019-06-07T03:02:26.542Z,97.25
2019-06-07T03:04:56.316Z,97.07
2019-06-07T03:07:33.012Z,96.67
2019-06-07T03:10:03.772Z,96.33
2019-06-07T03:12:35.581Z,96.52
2019-06-07T03:15:06.594Z,96.39
2019-06-07T03:17:52.772Z,97.08
2019-06-07T03:20:23.941Z,97.36
2019-06-07T03:22:55.590Z,97.55
2019-06-07T03:25:30.832Z,97.64
2019-06-07T03:28:01.435Z,97.65
2019-06-07T03:30:39.831Z,97.99
2019-06-07T03:33:03.850Z,98.14
2019-06-07T03:35:35.309Z,98.11
2019-06-07T03:38:06.369Z,97.88
2019-06-07T03:40:39.665Z,97.71
2019-06-07T03:43:09.095Z,97.94
2019-06-07T03:45:41.493Z,97.88
2019-06-07T03:48:11.787Z,98.13
2019-06-07T03:50:42.642Z,98.74
2019-06-07T03:53:13.072Z,98.80
2019-06-07T03:55:43.388Z,98.02
2019-06-07T03:58:31.852Z,97.69
2019-06-07T04:00:45.946Z,98.01
2019-06-07T04:03:32.758Z,98.27
2019-06-07T04:05:48.748Z,98.28
2019-06-07T04:08:19.526Z,97.99
2019-06-07T04:10:59.622Z,98.05
2019-06-07T04:13:22.025Z,97.81
2019-06-07T04:15:52.770Z,97.49
2019-06-07T04:18:23.165Z,97.51
2019-06-07T04:20:53.589Z,97.10
2019-06-07T04:23:28.285Z,96.30
2019-06-07T04:25:55.911Z,96.54
2019-06-07T04:29:15.613Z,96.61
2019-06-07T04:30:58.367Z,95.45
2019-06-07T04:33:28.907Z,95.55
2019-06-07T04:36:00.370Z,95.06
2019-06-07T04:38:39.323Z,94.93
2019-06-07T04:41:05.938Z,94.77
2019-06-07T04:43:40.945Z,94.68
2019-06-07T04:46:12.530Z,92.68
2019-06-07T04:48:45.572Z,88.96
2019-06-07T04:51:18.154Z,82.16
2019-06-07T04:53:48.831Z,80.14
2019-06-07T04:56:19.334Z,78.62
2019-06-07T05:02:24.854Z,75.57
2019-06-07T05:04:55.355Z,75.92
2019-06-07T05:07:26.646Z,74.59
2019-06-07T05:09:57.268Z,75.69
2019-06-07T05:12:27.593Z,74.71
2019-06-07T05:14:58.028Z,74.93
2019-06-07T05:17:28.925Z,73.98
2019-06-07T05:20:00.447Z,71.69
2019-06-07T05:22:33.470Z,72.55
2019-06-07T05:25:02.708Z,74.13
2019-06-07T05:27:35.514Z,75.92
2019-06-07T05:30:13.758Z,74.25
2019-06-07T05:32:43.668Z,72.74
2019-06-07T05:35:11.671Z,67.66
2019-06-07T05:37:45.805Z,69.38
2019-06-07T05:40:17.623Z,70.86
2019-06-07T05:42:48.018Z,72.83
2019-06-07T05:45:24.743Z,72.13
2019-06-07T05:47:55.327Z,72.11
2019-06-07T05:50:38.905Z,70.97
2019-06-07T05:52:57.933Z,71.91
2019-06-07T05:55:29.128Z,69.47
2019-06-07T05:58:01.813Z,71.27
2019-06-07T06:00:34.710Z,70.76
2019-06-07T06:03:05.975Z,70.42
2019-06-07T06:05:42.110Z,69.36
2019-06-07T06:08:09.214Z,67.82
2019-06-07T06:10:42.942Z,69.13
2019-06-07T06:13:12.217Z,69.93
2019-06-07T06:15:56.084Z,67.38
2019-06-07T06:18:14.988Z,69.26
2019-06-07T06:21:09.755Z,68.27
2019-06-07T06:23:17.797Z,65.84
2019-06-07T06:25:55.939Z,64.79
2019-06-07T06:28:20.455Z,67.72
2019-06-07T06:30:51.005Z,67.42
2019-06-07T06:33:33.416Z,68.19
2019-06-07T06:35:53.706Z,66.67
2019-06-07T06:38:24.126Z,65.63
2019-06-07T06:41:13.877Z,66.62
2019-06-07T06:43:26.754Z,67.31
2019-06-07T06:45:57.256Z,65.80
2019-06-07T06:48:27.803Z,66.51
2019-06-07T06:50:58.229Z,66.85
2019-06-07T06:53:28.564Z,67.90
2019-06-07T06:55:59.093Z,65.51
2019-06-07T06:58:29.469Z,65.56
2019-06-07T07:02:25.391Z,65.87
2019-06-07T07:04:56.020Z,66.33
2019-06-07T07:07:29.001Z,65.39
2019-06-07T07:10:00.302Z,64.01
2019-06-07T07:12:30.721Z,65.74
2019-06-07T07:15:01.156Z,66.67
2019-06-07T07:17:47.669Z,65.88
2019-06-07T07:20:04.287Z,63.89
2019-06-07T07:22:35.008Z,66.30
2019-06-07T07:25:05.972Z,62.79
2019-06-07T07:27:36.493Z,64.42
2019-06-07T07:30:35.410Z,64.79
2019-06-07T07:32:40.534Z,63.08
2019-06-07T07:35:11.551Z,63.14
2019-06-07T07:37:45.318Z,63.27
2019-06-07T07:42:47.622Z,62.00
2019-06-07T07:45:18.453Z,61.80
2019-06-07T07:48:03.184Z,62.18
2019-06-07T07:50:21.243Z,61.59
2019-06-07T07:52:56.028Z,62.75
2019-06-07T07:55:24.168Z,62.48
2019-06-07T07:58:01.089Z,60.58
2019-06-07T08:03:04.354Z,60.00
2019-06-07T08:05:42.506Z,61.22
2019-06-07T08:08:07.825Z,61.49
2019-06-07T08:10:37.658Z,63.44
2019-06-07T08:13:24.493Z,61.71
2019-06-07T08:15:40.389Z,61.92
2019-06-07T08:18:10.869Z,62.01
2019-06-07T08:21:05.043Z,62.61
2019-06-07T08:23:16.250Z,60.43
2019-06-07T08:25:46.851Z,60.99
2019-06-07T08:28:17.427Z,59.90
2019-06-07T08:30:53.249Z,60.36
2019-06-07T08:33:27.251Z,60.27
2019-06-07T08:38:33.835Z,59.78
2019-06-07T08:41:05.039Z,60.41
2019-06-07T08:43:29.186Z,60.14
2019-06-07T08:46:04.374Z,60.18
2019-06-07T08:48:31.652Z,59.68
2019-06-07T08:51:08.307Z,59.42
2019-06-07T08:53:34.582Z,58.19
2019-06-07T08:56:09.166Z,58.77
2019-06-07T08:58:37.315Z,58.69
2019-06-07T09:02:25.622Z,58.54
2019-06-07T09:04:59.199Z,57.95
2019-06-07T09:07:27.515Z,56.73
2019-06-07T09:10:03.469Z,57.05
2019-06-07T09:12:29.893Z,58.09
2019-06-07T09:15:14.780Z,57.31
2019-06-07T09:17:34.185Z,57.70
2019-06-07T09:20:09.135Z,56.64
2019-06-07T09:22:37.807Z,56.71
2019-06-07T09:25:20.189Z,57.62
2019-06-07T09:27:43.139Z,57.44
2019-06-07T09:30:18.543Z,56.57
2019-06-07T09:32:46.176Z,57.28
2019-06-07T09:35:18.225Z,58.16
2019-06-07T09:38:07.693Z,57.81
2019-06-07T09:40:31.530Z,56.23
2019-06-07T09:43:46.730Z,56.78
2019-06-07T09:45:34.554Z,56.00
2019-06-07T09:48:12.629Z,54.44
2019-06-07T09:50:37.717Z,55.44
2019-06-07T09:53:20.843Z,55.38
2019-06-07T09:55:40.941Z,54.70
2019-06-07T09:58:48.690Z,55.07
2019-06-07T10:00:47.147Z,54.05
2019-06-07T10:03:21.950Z,53.88
2019-06-07T10:05:49.783Z,54.21
2019-06-07T10:09:26.288Z,53.77
2019-06-07T10:10:52.708Z,54.26
2019-06-07T10:13:23.282Z,53.70
2019-06-07T10:15:53.803Z,53.84
2019-06-07T10:18:24.519Z,53.64
2019-06-07T10:20:55.148Z,52.97
2019-06-07T10:23:25.569Z,52.49
2019-06-07T10:25:56.022Z,53.70
2019-06-07T10:28:26.487Z,51.51
2019-06-07T10:30:56.979Z,51.80
2019-06-07T10:33:27.544Z,51.42
2019-06-07T10:35:58.127Z,52.24
2019-06-07T10:38:28.651Z,52.62
2019-06-07T10:40:59.086Z,52.30
2019-06-07T10:43:29.550Z,51.83
2019-06-07T10:46:01.357Z,51.51
2019-06-07T10:48:31.844Z,51.59
2019-06-07T10:51:06.182Z,52.71
2019-06-07T10:53:36.700Z,52.89
2019-06-07T10:56:07.116Z,53.25
2019-06-07T10:58:37.557Z,52.04
2019-06-07T11:02:23.078Z,52.22
2019-06-07T11:04:53.462Z,50.30
2019-06-07T11:07:23.987Z,50.16
2019-06-07T11:10:06.178Z,50.12
2019-06-07T11:12:26.767Z,51.26
2019-06-07T11:14:57.090Z,50.94
2019-06-07T11:17:27.666Z,50.63
2019-06-07T11:19:58.056Z,49.82
2019-06-07T11:22:28.403Z,49.79
2019-06-07T11:24:58.839Z,48.95
2019-06-07T11:27:29.043Z,49.25
2019-06-07T11:29:59.372Z,50.01
2019-06-07T11:32:29.778Z,49.05
2019-06-07T11:35:00.303Z,48.45
2019-06-07T11:37:30.538Z,49.10
2019-06-07T11:40:00.885Z,48.02
2019-06-07T11:42:31.481Z,48.25
2019-06-07T11:45:02.088Z,48.17
2019-06-07T11:47:32.370Z,47.75
2019-06-07T11:50:02.815Z,47.86
2019-06-07T11:52:33.409Z,48.62
2019-06-07T11:55:04.050Z,47.30
2019-06-07T11:57:34.511Z,46.60
2019-06-07T12:00:07.593Z,46.90
2019-06-07T12:02:38.180Z,47.12
2019-06-07T12:05:12.610Z,46.74
2019-06-07T12:07:41.446Z,46.26
2019-06-07T12:10:12.600Z,46.17
2019-06-07T12:12:43.163Z,45.97
2019-06-07T12:15:15.014Z,46.77
2019-06-07T12:17:45.522Z,46.43
2019-06-07T12:20:20.457Z,46.09
2019-06-07T12:22:50.103Z,47.17
2019-06-07T12:25:24.823Z,46.47
2019-06-07T12:27:55.661Z,46.86
2019-06-07T12:30:28.081Z,46.88
2019-06-07T12:32:58.168Z,46.34
2019-06-07T12:35:28.677Z,46.30
2019-06-07T12:37:59.003Z,46.81
2019-06-07T12:40:32.290Z,45.99
2019-06-07T12:43:01.574Z,44.96
2019-06-07T12:45:44.425Z,46.41
2019-06-07T12:48:04.129Z,46.47
2019-06-07T12:50:42.454Z,45.85
2019-06-07T12:53:07.273Z,45.42
2019-06-07T12:55:37.795Z,45.93
2019-06-07T12:58:08.065Z,45.48
2019-06-07T13:02:24.022Z,44.51
2019-06-07T13:04:54.940Z,45.29
2019-06-07T13:07:25.476Z,45.75
2019-06-07T13:09:55.885Z,45.28
2019-06-07T13:12:26.586Z,45.42
2019-06-07T13:15:00.505Z,44.91
2019-06-07T13:17:30.938Z,44.72
2019-06-07T13:20:01.361Z,45.67
2019-06-07T13:22:31.774Z,44.98
2019-06-07T13:25:02.292Z,45.44
2019-06-07T13:27:33.820Z,45.15
2019-06-07T13:30:10.064Z,44.30
2019-06-07T13:32:37.644Z,44.20
2019-06-07T13:35:08.555Z,44.85
2019-06-07T13:37:38.999Z,43.94
2019-06-07T13:40:11.070Z,44.91
2019-06-07T13:42:41.319Z,44.57
2019-06-07T13:45:13.472Z,43.74
2019-06-07T13:47:43.897Z,43.46
2019-06-07T13:50:15.123Z,43.86
2019-06-07T13:52:46.735Z,43.06
2019-06-07T13:55:19.941Z,43.29
2019-06-07T13:57:50.653Z,43.14
2019-06-07T14:00:23.090Z,42.11
2019-06-07T14:02:53.380Z,42.02
2019-06-07T14:05:25.052Z,41.63
2019-06-07T14:07:56.589Z,42.56
2019-06-07T14:10:27.592Z,42.68
2019-06-07T14:12:58.256Z,40.72
2019-06-07T14:15:33.695Z,41.43
2019-06-07T14:18:00.947Z,40.78
2019-06-07T14:20:34.613Z,41.96
2019-06-07T14:23:04.009Z,40.74
2019-06-07T14:25:34.528Z,41.35
2019-06-07T14:28:11.080Z,40.64
2019-06-07T14:30:37.500Z,40.77
2019-06-07T14:33:07.977Z,40.14
2019-06-07T14:35:38.539Z,40.47
2019-06-07T14:38:09.016Z,39.68
2019-06-07T14:40:39.588Z,40.03
2019-06-07T14:43:10.056Z,39.73
2019-06-07T14:45:40.407Z,40.11
2019-06-07T14:48:10.844Z,39.49
2019-06-07T14:50:41.277Z,37.71
2019-06-07T14:53:11.582Z,37.52
2019-06-07T14:55:41.991Z,36.56
2019-06-07T14:58:12.247Z,37.41
2019-06-07T15:02:22.275Z,39.37
2019-06-07T15:04:54.553Z,39.59
2019-06-07T15:07:24.929Z,39.23
2019-06-07T15:09:55.367Z,37.84
2019-06-07T15:12:27.472Z,37.78
2019-06-07T15:14:58.083Z,37.66
2019-06-07T15:17:28.460Z,38.26
2019-06-07T15:19:58.797Z,37.09
2019-06-07T15:22:30.185Z,37.38
2019-06-07T15:25:00.666Z,38.24
2019-06-07T15:27:31.317Z,37.48
2019-06-07T15:30:09.476Z,38.32
2019-06-07T15:32:35.591Z,38.97
2019-06-07T15:35:06.640Z,39.72
2019-06-07T15:37:37.149Z,39.95
2019-06-07T15:40:09.497Z,39.84
2019-06-07T15:42:51.298Z,40.58
2019-06-07T15:45:12.519Z,40.86
2019-06-07T15:47:42.973Z,41.69
2019-06-07T15:50:14.034Z,41.72
2019-06-07T15:52:44.370Z,41.24
2019-06-07T15:55:15.984Z,42.55
2019-06-07T15:57:46.814Z,41.57
2019-06-07T16:00:20.032Z,40.65
2019-06-07T16:02:50.645Z,40.48
2019-06-07T16:05:21.500Z,40.99
2019-06-07T16:07:52.028Z,40.54
2019-06-07T16:10:23.115Z,39.64
2019-06-07T16:13:00.202Z,40.29
2019-06-07T16:15:25.851Z,40.09
2019-06-07T16:17:56.296Z,40.89
2019-06-07T16:20:26.688Z,42.21
2019-06-07T16:22:57.110Z,42.73
2019-06-07T16:25:27.585Z,47.80
2019-06-07T16:27:58.039Z,49.93
2019-06-07T16:30:28.543Z,50.52
2019-06-07T16:32:59.026Z,50.04
2019-06-07T16:35:30.074Z,50.62
2019-06-07T16:38:00.650Z,51.39
2019-06-07T16:40:30.966Z,51.29
2019-06-07T16:43:16.349Z,51.70
2019-06-07T16:45:33.642Z,52.28
2019-06-07T16:48:04.029Z,51.75
2019-06-07T16:50:34.370Z,51.10
2019-06-07T16:53:04.887Z,51.24
2019-06-07T16:55:36.396Z,51.86
2019-06-07T16:58:06.959Z,52.53
2019-06-07T17:02:23.235Z,54.03
2019-06-07T17:04:53.725Z,54.13
2019-06-07T17:07:24.223Z,52.71
2019-06-07T17:09:54.585Z,52.41
2019-06-07T17:12:25.096Z,51.88
2019-06-07T17:14:55.612Z,50.79
2019-06-07T17:17:26.207Z,50.52
2019-06-07T17:19:56.471Z,50.19
2019-06-07T17:22:27.312Z,50.74
2019-06-07T17:24:57.767Z,52.60
2019-06-07T17:27:28.292Z,54.42
2019-06-07T17:29:58.861Z,57.59
2019-06-07T17:32:29.241Z,58.85
2019-06-07T17:34:59.552Z,59.40
2019-06-07T17:37:30.201Z,59.75
2019-06-07T17:40:00.792Z,59.84
2019-06-07T17:42:31.259Z,59.97
2019-06-07T17:45:01.904Z,60.02
2019-06-07T17:47:32.596Z,60.11
2019-06-07T17:50:03.355Z,60.28
2019-06-07T17:52:34.220Z,60.80
2019-06-07T17:55:05.026Z,61.27
2019-06-07T17:57:35.536Z,61.61
2019-06-07T18:00:27.780Z,60.91
2019-06-07T18:02:40.182Z,61.12
2019-06-07T18:05:10.998Z,61.27
2019-06-07T18:07:43.482Z,60.52
2019-06-07T18:10:15.569Z,60.94
2019-06-07T18:12:46.255Z,61.26
2019-06-07T18:15:19.874Z,61.22
2019-06-07T18:17:50.694Z,61.18
2019-06-07T18:20:21.168Z,60.29
2019-06-07T18:22:51.571Z,59.86
2019-06-07T18:25:22.121Z,59.96
2019-06-07T18:27:52.785Z,59.71
2019-06-07T18:30:23.453Z,58.24
2019-06-07T18:32:55.064Z,58.21
2019-06-07T18:35:25.766Z,58.34
2019-06-07T18:37:56.442Z,58.50
2019-06-07T18:40:26.881Z,58.39
2019-06-07T18:42:57.521Z,58.89
2019-06-07T18:45:28.276Z,58.32
2019-06-07T18:47:58.871Z,58.20
2019-06-07T18:50:29.443Z,58.46
2019-06-07T18:52:59.878Z,58.34
2019-06-07T18:55:30.289Z,58.32
2019-06-07T18:58:00.838Z,58.40
2019-06-07T19:02:22.897Z,59.06
2019-06-07T19:04:54.220Z,58.60
2019-06-07T19:07:24.748Z,58.62
2019-06-07T19:09:55.231Z,58.97
2019-06-07T19:12:25.641Z,58.76
2019-06-07T19:14:57.511Z,58.95
2019-06-07T19:17:28.114Z,58.50
2019-06-07T19:19:58.578Z,58.22
2019-06-07T19:22:29.035Z,58.12
2019-06-07T19:25:00.485Z,58.47
2019-06-07T19:27:33.040Z,58.55
2019-06-07T19:30:03.274Z,58.72
2019-06-07T19:32:33.701Z,58.62
2019-06-07T19:35:04.361Z,58.72
2019-06-07T19:37:34.744Z,58.15
2019-06-07T19:40:06.003Z,58.25
2019-06-07T19:42:36.619Z,58.92
2019-06-07T19:45:28.912Z,58.75
2019-06-07T19:47:39.639Z,58.66
2019-06-07T19:50:10.482Z,58.92
2019-06-07T19:52:40.822Z,58.99
2019-06-07T19:55:12.606Z,59.71
2019-06-07T19:57:43.129Z,59.71
2019-06-07T20:00:15.269Z,59.83
2019-06-07T20:02:45.843Z,60.08
2019-06-07T20:05:18.817Z,60.33
2019-06-07T20:07:49.415Z,60.34
2019-06-07T20:10:20.785Z,60.83
2019-06-07T20:12:51.143Z,60.71
2019-06-07T20:15:28.861Z,60.61
2019-06-07T20:17:55.015Z,60.65
2019-06-07T20:20:25.592Z,60.49
2019-06-07T20:22:56.531Z,60.75
2019-06-07T20:25:26.905Z,60.93
2019-06-07T20:27:57.440Z,60.89
2019-06-07T20:30:27.878Z,61.27
2019-06-07T20:32:59.690Z,60.97
2019-06-07T20:35:30.319Z,61.31
2019-06-07T20:38:01.117Z,61.01
2019-06-07T20:40:31.412Z,61.45
2019-06-07T20:43:01.825Z,61.53
2019-06-07T20:45:33.921Z,61.31
2019-06-07T20:48:04.392Z,63.03
2019-06-07T20:50:34.771Z,63.90
2019-06-07T20:53:07.073Z,64.78
2019-06-07T20:55:37.849Z,66.04
2019-06-07T20:58:09.530Z,65.80
2019-06-07T21:02:23.125Z,64.42
2019-06-07T21:04:53.629Z,65.14
2019-06-07T21:07:24.167Z,64.83
2019-06-07T21:09:54.717Z,64.20
2019-06-07T21:12:26.386Z,64.41
2019-06-07T21:14:56.731Z,64.03
2019-06-07T21:17:26.414Z,63.35
2019-06-07T21:19:56.840Z,64.33
2019-06-07T21:22:27.594Z,65.40
2019-06-07T21:24:57.905Z,65.38
2019-06-07T21:27:28.638Z,65.56
2019-06-07T21:29:58.949Z,65.73
2019-06-07T21:32:29.160Z,66.03
2019-06-07T21:34:59.506Z,65.72
2019-06-07T21:37:29.977Z,65.78
2019-06-07T21:40:01.724Z,65.37
2019-06-07T21:42:32.481Z,65.32
2019-06-07T21:45:04.357Z,65.72
2019-06-07T21:47:35.054Z,65.78
2019-06-07T21:50:06.622Z,66.20
2019-06-07T21:52:37.318Z,68.38
2019-06-07T21:55:09.099Z,70.83
2019-06-07T21:57:39.665Z,70.79
2019-06-07T22:00:15.344Z,70.65
2019-06-07T22:02:45.855Z,72.65
2019-06-07T22:05:16.467Z,72.34
2019-06-07T22:07:46.848Z,75.07
2019-06-07T22:10:17.400Z,75.05
2019-06-07T22:12:47.726Z,77.34
2019-06-07T22:15:31.977Z,82.24
2019-06-07T22:17:50.505Z,78.83
2019-06-07T22:20:21.221Z,81.79
2019-06-07T22:22:51.576Z,82.79
2019-06-07T22:25:22.002Z,82.38
2019-06-07T22:27:52.429Z,83.69
2019-06-07T22:30:23.000Z,84.48
2019-06-07T22:32:53.358Z,85.26
2019-06-07T22:35:23.999Z,85.92
2019-06-07T22:37:54.164Z,85.76
2019-06-07T22:40:24.703Z,85.58
2019-06-07T22:42:55.099Z,87.54
2019-06-07T22:45:25.661Z,87.36
2019-06-07T22:47:56.227Z,87.04
2019-06-07T22:50:28.064Z,85.76
2019-06-07T22:52:58.503Z,87.24
2019-06-07T22:55:29.013Z,86.85
2019-06-07T22:57:59.788Z,85.96
2019-06-07T23:02:22.080Z,86.38
2019-06-07T23:04:52.445Z,87.23
2019-06-07T23:07:22.994Z,83.85
2019-06-07T23:09:53.387Z,84.17
2019-06-07T23:12:23.804Z,82.55
2019-06-07T23:14:54.258Z,84.55
2019-06-07T23:17:24.627Z,85.31
2019-06-07T23:19:55.057Z,83.86
2019-06-07T23:22:25.485Z,85.74
2019-06-07T23:24:55.880Z,86.11
2019-06-07T23:27:26.572Z,83.85
2019-06-07T23:29:56.911Z,85.47
2019-06-07T23:32:27.131Z,85.07
2019-06-07T23:34:57.584Z,85.79
2019-06-07T23:37:28.118Z,87.34
2019-06-07T23:39:58.417Z,87.58
2019-06-07T23:42:29.189Z,85.28
2019-06-07T23:44:59.699Z,87.41
2019-06-07T23:47:30.206Z,87.35
2019-06-07T23:50:00.686Z,89.58
2019-06-07T23:52:31.108Z,89.07
2019-06-07T23:55:01.537Z,87.94
2019-06-07T23:57:32.107Z,88.80
